Time;durP1;ratioP1;P1;durP2;ratioP2;P2;SDS_P1;SDS_P2;PMS_P1;PMS_P2;Temp;Humidity;BMP_temperature;BMP_pressure;BME280_temperature;BME280_humidity;BME280_pressure;Samples;Min_cycle;Max_cycle;Signal;HPM_P1;HPM_P2
2023/03/19 00:01:26;;;;;;;24.77;17.47;;;;;;;5.68;62.99;100109.19;5072352;28;20188;-71
2023/03/19 00:03:53;;;;;;;31.97;18.13;;;;;;;5.47;63.47;100108.66;5071896;28;20188;-71
2023/03/19 00:06:21;;;;;;;24.77;16.03;;;;;;;5.47;63.77;100106.03;5071791;28;20774;-71
2023/03/19 00:08:48;;;;;;;26.43;16.23;;;;;;;5.48;63.90;100107.66;5056281;28;20201;-71
2023/03/19 00:11:15;;;;;;;24.43;14.20;;;;;;;5.48;63.81;100118.22;5032045;28;20680;-72
2023/03/19 00:13:42;;;;;;;20.33;14.53;;;;;;;5.51;64.26;100115.28;5031810;28;20685;-72
2023/03/19 00:16:09;;;;;;;18.83;13.73;;;;;;;5.51;63.91;100114.44;5032165;28;20197;-72
2023/03/19 00:18:37;;;;;;;22.27;14.30;;;;;;;5.40;64.25;100110.22;5050990;28;20266;-71
2023/03/19 00:21:04;;;;;;;21.00;13.70;;;;;;;5.35;64.60;100107.19;5051571;28;20548;-71
2023/03/19 00:23:31;;;;;;;17.43;12.60;;;;;;;5.43;64.67;100109.94;5051902;28;20197;-71
2023/03/19 00:25:57;;;;;;;15.90;12.07;;;;;;;5.37;64.66;100104.44;5049755;28;20200;-71
2023/03/19 00:28:25;;;;;;;16.73;12.20;;;;;;;5.34;64.52;100095.03;5051638;28;20660;-71
2023/03/19 00:30:52;;;;;;;15.37;11.90;;;;;;;5.26;65.04;100094.94;5051540;28;20573;-71
2023/03/19 00:33:19;;;;;;;23.40;12.47;;;;;;;5.16;65.91;100088.06;5052084;28;20189;-71
2023/03/19 00:35:47;;;;;;;14.73;12.63;;;;;;;5.09;65.07;100094.88;5041579;28;20687;-70
2023/03/19 00:38:14;;;;;;;15.47;12.20;;;;;;;4.95;66.08;100085.66;5031259;28;20267;-71
2023/03/19 00:40:41;;;;;;;24.10;12.80;;;;;;;4.95;65.70;100075.13;5031513;28;20250;-69
2023/03/19 00:43:08;;;;;;;21.80;12.03;;;;;;;4.99;66.22;100075.69;5032178;28;20196;-70
2023/03/19 00:45:34;;;;;;;22.70;13.13;;;;;;;4.87;65.45;100055.78;5031792;28;20251;-71
2023/03/19 00:48:04;;;;;;;18.77;12.93;;;;;;;5.00;66.19;100078.19;5038942;28;20197;-71
2023/03/19 00:50:31;;;;;;;18.07;12.10;;;;;;;4.90;66.59;100064.22;5031669;28;20201;-71
2023/03/19 00:53:00;;;;;;;22.87;11.27;;;;;;;4.99;65.94;100073.88;5031423;28;20621;-71
2023/03/19 00:55:27;;;;;;;19.30;12.00;;;;;;;4.91;66.02;100065.88;5031520;28;20204;-72
2023/03/19 00:57:53;;;;;;;15.77;10.80;;;;;;;4.86;65.92;100068.13;5032564;28;20685;-72
2023/03/19 01:00:21;;;;;;;17.47;11.60;;;;;;;4.70;66.29;100067.91;5052915;28;20228;-72
2023/03/19 01:02:48;;;;;;;16.47;11.53;;;;;;;4.72;66.69;100055.44;5051049;28;20648;-71
2023/03/19 01:05:15;;;;;;;19.20;11.90;;;;;;;4.74;66.68;100069.28;5051098;28;20203;-71
2023/03/19 01:07:42;;;;;;;18.73;11.70;;;;;;;4.70;66.83;100067.09;5051416;28;20193;-72
2023/03/19 01:10:11;;;;;;;15.47;11.70;;;;;;;4.68;67.34;100064.59;5037083;28;20255;-70
2023/03/19 01:12:38;;;;;;;16.20;12.37;;;;;;;4.67;67.61;100062.13;5046400;28;20583;-71
2023/03/19 01:15:07;;;;;;;18.93;12.43;;;;;;;4.64;67.30;100062.41;5051116;28;20583;-71
2023/03/19 01:17:34;;;;;;;23.37;13.73;;;;;;;4.67;67.06;100062.97;5051341;28;20247;-71
2023/03/19 01:20:01;;;;;;;22.07;13.47;;;;;;;4.66;67.15;100055.19;5051058;28;20602;-71
2023/03/19 01:22:27;;;;;;;18.30;12.53;;;;;;;4.53;67.17;100050.25;5050258;28;20262;-71
2023/03/19 01:24:54;;;;;;;23.70;13.40;;;;;;;4.51;67.10;100062.75;5051440;28;20188;-72
2023/03/19 01:27:23;;;;;;;53.37;13.73;;;;;;;4.59;67.46;100060.22;5051073;28;20683;-72
2023/03/19 01:29:50;;;;;;;25.90;12.73;;;;;;;4.34;68.14;100050.31;5042250;28;20200;-72
2023/03/19 01:32:17;;;;;;;19.40;12.70;;;;;;;4.37;68.34;100057.91;5030013;28;20201;-72
2023/03/19 01:34:44;;;;;;;18.87;13.17;;;;;;;4.41;68.39;100066.38;5029683;28;20240;-72
2023/03/19 01:37:11;;;;;;;19.37;12.90;;;;;;;4.33;68.18;100056.53;5031430;28;20656;-71
2023/03/19 01:39:38;;;;;;;24.73;12.80;;;;;;;4.23;68.92;100066.28;5040762;28;20216;-71
2023/03/19 01:42:05;;;;;;;19.37;13.13;;;;;;;4.28;68.81;100066.66;5054749;28;20253;-72
2023/03/19 01:44:35;;;;;;;20.60;14.70;;;;;;;4.35;68.82;100062.50;5054416;28;20664;-72
2023/03/19 01:47:06;;;;;;;19.37;13.10;;;;;;;4.40;68.55;100065.53;5054587;28;20246;-71
2023/03/19 01:49:33;;;;;;;19.67;13.40;;;;;;;4.32;68.80;100052.28;5054646;28;20195;-71
2023/03/19 01:52:04;;;;;;;20.70;12.73;;;;;;;4.29;69.15;100057.00;5046488;28;20255;-72
2023/03/19 01:54:32;;;;;;;20.37;11.90;;;;;;;4.37;69.30;100065.81;5035503;28;20208;-72
2023/03/19 01:57:03;;;;;;;17.50;12.63;;;;;;;4.44;69.31;100066.06;5034205;28;20677;-70
2023/03/19 01:59:35;;;;;;;15.83;13.33;;;;;;;4.40;68.54;100069.94;5061927;28;20231;-70
2023/03/19 02:02:06;;;;;;;14.77;12.37;;;;;;;4.40;69.40;100076.06;5073288;28;20639;-70
2023/03/19 02:04:35;;;;;;;14.47;11.93;;;;;;;4.43;67.94;100060.00;5058786;28;20189;-71
2023/03/19 02:07:03;;;;;;;20.00;13.37;;;;;;;4.47;68.75;100076.31;5054215;28;20250;-71
2023/03/19 02:09:32;;;;;;;20.87;14.20;;;;;;;4.54;68.76;100078.22;5054361;28;20196;-70
2023/03/19 02:12:00;;;;;;;19.10;12.60;;;;;;;4.53;68.48;100060.78;5054015;28;20242;-70
2023/03/19 02:14:27;;;;;;;18.57;13.40;;;;;;;4.62;68.24;100074.88;5053852;28;20656;-71
2023/03/19 02:16:55;;;;;;;22.23;13.50;;;;;;;4.60;67.36;100077.66;5038226;28;20204;-70
2023/03/19 02:19:28;;;;;;;19.13;13.33;;;;;;;4.53;68.53;100073.94;5034433;28;20217;-70
2023/03/19 02:21:58;;;;;;;17.20;11.87;;;;;;;4.67;68.08;100083.16;5034306;28;20205;-71
2023/03/19 02:24:29;;;;;;;13.33;11.97;;;;;;;4.74;68.05;100082.44;5034196;28;20189;-70
2023/03/19 02:26:58;;;;;;;19.20;11.43;;;;;;;4.77;67.36;100079.53;5034339;28;20189;-71
2023/03/19 02:29:25;;;;;;;14.37;11.20;;;;;;;4.80;66.83;100089.75;5033731;28;20284;-70
2023/03/19 02:31:52;;;;;;;13.93;10.87;;;;;;;4.86;66.56;100091.81;5034031;28;20229;-70
2023/03/19 02:34:38;;;;;;;10.23;9.27;;;;;;;4.92;66.33;100093.88;5053721;28;20742;-70
2023/03/19 02:37:11;;;;;;;9.93;8.93;;;;;;;4.88;65.87;100103.03;5053649;28;20189;-70
2023/03/19 02:39:45;;;;;;;12.03;10.30;;;;;;;4.87;65.72;100100.53;5053616;28;20299;-70
2023/03/19 02:42:15;;;;;;;11.07;9.70;;;;;;;4.89;65.71;100099.41;5052730;28;20230;-70
2023/03/19 02:44:42;;;;;;;14.33;10.57;;;;;;;4.98;65.19;100111.69;5053687;28;20300;-71
2023/03/19 02:47:09;;;;;;;12.47;9.93;;;;;;;5.08;64.84;100106.41;5053197;28;20204;-71
2023/03/19 02:49:36;;;;;;;10.40;9.27;;;;;;;5.22;64.36;100117.25;5052764;28;20197;-70
2023/03/19 02:52:03;;;;;;;9.87;8.90;;;;;;;5.22;64.29;100109.38;5053438;28;20242;-71
2023/03/19 02:54:29;;;;;;;10.47;8.43;;;;;;;5.23;64.16;100107.56;5052418;28;20256;-71
2023/03/19 02:56:56;;;;;;;9.93;8.30;;;;;;;5.33;63.63;100109.16;5052997;28;20242;-71
2023/03/19 02:59:24;;;;;;;12.57;8.00;;;;;;;5.32;63.73;100107.50;5065729;28;20677;-70
2023/03/19 03:01:51;;;;;;;9.83;7.90;;;;;;;5.36;63.94;100108.84;5073471;28;20188;-71
2023/03/19 03:04:17;;;;;;;11.63;8.97;;;;;;;5.32;63.68;100107.50;5073404;28;20199;-72
2023/03/19 03:06:45;;;;;;;9.83;8.93;;;;;;;5.29;63.70;100101.69;5069584;28;20269;-70
2023/03/19 03:09:12;;;;;;;9.60;8.70;;;;;;;5.38;63.47;100104.28;5033204;28;20204;-70
2023/03/19 03:11:40;;;;;;;9.87;8.67;;;;;;;5.50;63.39;100111.00;5033337;28;20283;-70
2023/03/19 03:14:08;;;;;;;10.07;8.83;;;;;;;5.61;63.02;100108.13;5032689;28;20190;-70
2023/03/19 03:16:36;;;;;;;10.00;7.77;;;;;;;5.71;61.92;100114.19;5033294;28;20251;-71
2023/03/19 03:19:03;;;;;;;10.03;9.00;;;;;;;5.74;61.62;100105.97;5035159;28;20241;-71
2023/03/19 03:21:31;;;;;;;9.23;7.90;;;;;;;5.72;61.92;100107.91;5053326;28;20193;-71
2023/03/19 03:23:58;;;;;;;9.60;8.53;;;;;;;5.71;62.27;100103.63;5052461;28;20279;-71
2023/03/19 03:26:24;;;;;;;11.10;8.67;;;;;;;5.78;61.21;100115.25;5053020;28;20193;-70
2023/03/19 03:28:52;;;;;;;14.63;8.93;;;;;;;5.75;61.74;100115.53;5052555;28;20196;-70
2023/03/19 03:31:18;;;;;;;11.77;8.47;;;;;;;5.65;62.19;100117.41;5049513;28;20192;-71
2023/03/19 03:33:46;;;;;;;10.17;9.03;;;;;;;5.63;62.09;100114.09;5032438;28;20694;-71
2023/03/19 03:36:13;;;;;;;10.83;8.77;;;;;;;5.68;61.52;100125.00;5032760;28;20232;-71
2023/03/19 03:38:40;;;;;;;12.57;10.00;;;;;;;5.66;61.79;100126.97;5032173;28;20217;-71
2023/03/19 03:41:06;;;;;;;11.93;9.30;;;;;;;5.64;61.49;100121.00;5046974;28;20197;-71
2023/03/19 03:43:33;;;;;;;10.43;8.80;;;;;;;5.61;60.87;100113.41;5043220;28;20197;-71
2023/03/19 03:46:00;;;;;;;11.43;8.87;;;;;;;5.52;61.88;100118.75;5032545;28;20659;-71
2023/03/19 03:48:27;;;;;;;10.73;9.30;;;;;;;5.52;62.02;100122.19;5032169;28;20670;-71
2023/03/19 03:50:55;;;;;;;11.10;9.93;;;;;;;5.56;62.01;100130.66;5032784;28;20194;-71
2023/03/19 03:53:22;;;;;;;10.03;9.07;;;;;;;5.66;61.97;100126.13;5048983;28;20204;-71
2023/03/19 03:55:50;;;;;;;10.13;9.23;;;;;;;5.72;62.05;100125.56;5051992;28;20292;-72
2023/03/19 03:58:16;;;;;;;13.57;8.77;;;;;;;5.74;62.29;100124.44;5056113;28;20191;-72
2023/03/19 04:00:43;;;;;;;11.77;9.33;;;;;;;5.72;61.73;100104.47;5072593;28;20230;-71
2023/03/19 04:03:10;;;;;;;9.43;8.53;;;;;;;5.95;61.52;100132.06;5071949;28;20202;-71
2023/03/19 04:05:37;;;;;;;11.20;9.37;;;;;;;5.99;61.38;100132.56;5052248;28;20196;-71
2023/03/19 04:08:07;;;;;;;9.30;8.33;;;;;;;6.05;60.92;100137.25;5052558;28;20197;-71
2023/03/19 04:10:35;;;;;;;11.70;9.03;;;;;;;6.09;60.75;100143.88;5052050;28;20223;-71
2023/03/19 04:13:02;;;;;;;11.40;10.23;;;;;;;6.08;60.44;100145.69;5052022;28;20291;-71
2023/03/19 04:15:29;;;;;;;10.87;9.13;;;;;;;5.98;60.55;100141.47;5051426;28;20741;-71
2023/03/19 04:17:56;;;;;;;12.33;9.60;;;;;;;5.95;60.89;100136.53;5052083;28;20226;-72
2023/03/19 04:20:22;;;;;;;12.47;8.97;;;;;;;5.93;61.14;100139.31;5052002;28;20216;-72
2023/03/19 04:22:49;;;;;;;11.10;8.63;;;;;;;5.88;60.73;100146.81;5052095;28;20199;-71
2023/03/19 04:25:18;;;;;;;11.83;8.80;;;;;;;5.71;60.84;100137.06;5039824;28;20193;-72
2023/03/19 04:27:45;;;;;;;8.83;7.93;;;;;;;5.47;61.73;100136.78;5031870;28;20722;-72
2023/03/19 04:30:13;;;;;;;13.23;8.80;;;;;;;5.34;62.27;100142.44;5032039;28;20194;-71
2023/03/19 04:32:40;;;;;;;19.33;12.40;;;;;;;5.23;62.68;100145.25;5032096;28;20193;-71
2023/03/19 04:35:07;;;;;;;13.07;8.93;;;;;;;5.26;62.50;100144.13;5031842;28;20288;-71
2023/03/19 04:37:34;;;;;;;11.27;8.60;;;;;;;5.22;63.01;100148.03;5031836;28;20193;-71
2023/03/19 04:40:00;;;;;;;11.53;8.37;;;;;;;5.20;63.47;100153.44;5031816;28;20224;-71
2023/03/19 04:42:28;;;;;;;12.90;9.20;;;;;;;5.21;63.39;100146.38;5033211;28;20208;-71
2023/03/19 04:44:55;;;;;;;10.70;8.67;;;;;;;5.20;63.28;100137.63;5051834;28;20200;-70
2023/03/19 04:47:22;;;;;;;12.10;9.90;;;;;;;5.18;63.49;100142.22;5051890;28;20196;-70
2023/03/19 04:49:49;;;;;;;15.97;10.63;;;;;;;5.05;64.07;100136.47;5051587;28;20261;-71
2023/03/19 04:52:15;;;;;;;13.13;9.80;;;;;;;5.00;64.14;100144.00;5051172;28;20197;-72
2023/03/19 04:54:42;;;;;;;9.40;8.53;;;;;;;4.91;64.59;100138.75;5051650;28;20621;-72
2023/03/19 04:57:09;;;;;;;18.00;8.77;;;;;;;4.90;64.37;100143.19;5051780;28;20196;-72
2023/03/19 04:59:37;;;;;;;16.20;9.07;;;;;;;5.00;63.95;100143.16;5066176;28;20227;-71
2023/03/19 05:02:04;;;;;;;12.63;9.10;;;;;;;5.00;64.16;100140.50;5071379;28;20188;-72
2023/03/19 05:04:31;;;;;;;14.10;9.20;;;;;;;5.10;63.88;100144.75;5071038;28;20245;-72
2023/03/19 05:06:57;;;;;;;11.27;8.73;;;;;;;5.31;62.77;100147.16;5043930;28;20236;-72
2023/03/19 05:09:24;;;;;;;14.43;9.53;;;;;;;5.30;62.66;100153.38;5032506;28;20731;-72
2023/03/19 05:11:51;;;;;;;16.27;8.53;;;;;;;5.20;62.30;100148.16;5032946;28;20200;-71
2023/03/19 05:14:18;;;;;;;9.77;8.53;;;;;;;5.41;61.72;100171.66;5035369;28;20239;-71
2023/03/19 05:16:46;;;;;;;13.00;9.47;;;;;;;5.41;61.64;100174.28;5035779;28;20205;-72
2023/03/19 05:19:13;;;;;;;9.60;8.60;;;;;;;5.36;61.89;100174.69;5035396;28;20274;-71
2023/03/19 05:21:39;;;;;;;10.30;8.37;;;;;;;5.46;61.38;100183.41;5035391;28;20288;-72
2023/03/19 05:24:06;;;;;;;9.10;7.90;;;;;;;5.43;61.44;100177.56;5035009;28;20734;-71
2023/03/19 05:26:33;;;;;;;12.00;7.60;;;;;;;5.43;61.49;100161.78;5034989;28;20736;-71
2023/03/19 05:29:00;;;;;;;9.40;7.40;;;;;;;5.39;61.33;100174.41;5035073;28;20196;-71
2023/03/19 05:31:26;;;;;;;12.37;8.90;;;;;;;5.41;61.36;100167.22;5051165;28;20196;-71
2023/03/19 05:33:55;;;;;;;19.93;9.87;;;;;;;5.31;61.88;100153.25;5055065;28;20251;-71
2023/03/19 05:36:22;;;;;;;10.40;8.17;;;;;;;5.49;62.20;100174.38;5055070;28;20209;-71
2023/03/19 05:38:49;;;;;;;15.30;7.80;;;;;;;5.53;61.13;100167.84;5054971;28;20192;-71
2023/03/19 05:41:16;;;;;;;10.30;7.27;;;;;;;5.78;60.75;100170.59;5054600;28;20701;-71
2023/03/19 05:43:43;;;;;;;8.00;7.20;;;;;;;5.89;59.36;100159.03;5036802;28;20197;-71
2023/03/19 05:46:10;;;;;;;13.30;7.17;;;;;;;6.05;59.50;100168.91;5034557;28;20197;-71
2023/03/19 05:48:37;;;;;;;7.50;6.67;;;;;;;6.11;59.14;100184.09;5034964;28;20190;-72
2023/03/19 05:51:06;;;;;;;8.03;7.37;;;;;;;6.36;58.76;100186.81;5043726;28;20209;-71
2023/03/19 05:53:32;;;;;;;10.77;7.60;;;;;;;6.68;57.98;100194.16;5062189;28;20275;-70
2023/03/19 05:55:59;;;;;;;7.80;7.00;;;;;;;7.03;56.46;100189.63;5063313;28;20789;-70
2023/03/19 05:58:27;;;;;;;6.80;6.30;;;;;;;7.24;56.29;100189.22;5063016;28;20620;-69
2023/03/19 06:00:55;;;;;;;7.50;6.80;;;;;;;7.53;55.24;100189.66;5061451;28;20225;-70
2023/03/19 06:03:21;;;;;;;8.03;7.27;;;;;;;7.91;53.70;100202.34;5064148;28;20199;-70
2023/03/19 06:05:49;;;;;;;6.93;6.23;;;;;;;8.23;53.72;100210.38;5065127;28;20284;-69
2023/03/19 06:08:17;;;;;;;7.03;6.33;;;;;;;8.55;52.26;100207.75;5060741;28;20189;-70
2023/03/19 06:10:44;;;;;;;263.93;29.70;;;;;;;8.91;52.80;100201.13;5063203;28;20200;-70
2023/03/19 06:13:11;;;;;;;8.93;6.80;;;;;;;9.42;54.77;100200.63;5052501;28;20185;-70
2023/03/19 06:15:37;;;;;;;192.50;19.57;;;;;;;9.83;47.62;100223.34;5052651;28;20199;-71
2023/03/19 06:18:04;;;;;;;8.50;6.30;;;;;;;9.93;46.57;100219.47;5053772;28;20656;-72
2023/03/19 06:20:31;;;;;;;7.80;5.47;;;;;;;9.94;46.37;100209.69;5053819;28;20217;-71
2023/03/19 06:22:58;;;;;;;9.30;6.00;;;;;;;9.97;46.72;100222.63;5053415;28;20192;-72
2023/03/19 06:25:26;;;;;;;19.87;9.33;;;;;;;10.26;45.83;100214.84;5052937;28;20189;-69
2023/03/19 06:27:52;;;;;;;15.40;7.90;;;;;;;10.73;44.97;100221.59;5054017;28;20656;-70
2023/03/19 06:30:19;;;;;;;10.80;7.77;;;;;;;11.15;44.04;100222.88;5053707;28;20371;-67
2023/03/19 06:32:46;;;;;;;7.67;6.83;;;;;;;11.30;42.96;100223.72;5053674;28;20251;-70
2023/03/19 06:35:13;;;;;;;5.80;5.30;;;;;;;11.14;42.84;100216.72;5034780;28;20254;-70
2023/03/19 06:37:39;;;;;;;6.03;5.63;;;;;;;11.12;42.44;100213.44;5033739;28;20304;-70
2023/03/19 06:40:07;;;;;;;5.37;4.97;;;;;;;11.21;43.23;100215.00;5033884;28;20287;-70
2023/03/19 06:42:35;;;;;;;18.87;6.07;;;;;;;11.58;42.35;100214.06;5033908;28;20251;-71
2023/03/19 06:45:02;;;;;;;5.30;4.80;;;;;;;11.89;41.29;100218.19;5033314;28;20667;-70
2023/03/19 06:47:28;;;;;;;5.80;5.10;;;;;;;12.22;40.58;100214.06;5033391;28;20762;-70
2023/03/19 06:49:56;;;;;;;6.20;5.70;;;;;;;12.09;40.66;100200.59;5033156;28;20199;-71
2023/03/19 06:52:23;;;;;;;4.80;4.40;;;;;;;12.23;41.27;100199.72;5041624;28;20186;-71
2023/03/19 06:54:49;;;;;;;5.63;5.27;;;;;;;12.30;40.59;100205.97;5053183;28;20250;-69
2023/03/19 06:57:17;;;;;;;6.80;6.07;;;;;;;12.20;40.78;100199.28;5053227;28;20271;-71
2023/03/19 06:59:45;;;;;;;4.93;4.63;;;;;;;12.20;40.58;100196.59;5068857;28;20230;-70
2023/03/19 07:02:12;;;;;;;5.47;5.07;;;;;;;12.73;39.67;100201.41;5059679;28;20188;-69
2023/03/19 07:04:39;;;;;;;5.80;5.40;;;;;;;12.88;39.75;100204.84;5033072;28;20195;-70
2023/03/19 07:07:05;;;;;;;5.90;5.30;;;;;;;12.70;40.30;100201.81;5033303;28;20263;-67
2023/03/19 07:09:32;;;;;;;6.10;5.33;;;;;;;12.76;40.31;100196.53;5032858;28;20660;-68
2023/03/19 07:11:59;;;;;;;5.83;5.20;;;;;;;12.61;41.12;100192.28;5032749;28;20195;-69
2023/03/19 07:14:26;;;;;;;6.30;5.07;;;;;;;12.78;40.32;100199.03;5033248;28;20633;-68
2023/03/19 07:16:54;;;;;;;12.63;5.50;;;;;;;12.97;40.05;100193.88;5032882;28;20253;-68
2023/03/19 07:19:21;;;;;;;5.77;4.70;;;;;;;13.13;39.33;100190.06;5032551;28;20255;-70
2023/03/19 07:21:48;;;;;;;4.90;4.60;;;;;;;13.31;39.03;100190.41;5032476;28;20274;-67
2023/03/19 07:24:15;;;;;;;5.97;5.37;;;;;;;13.45;39.16;100182.28;5032963;28;20200;-71
2023/03/19 07:26:42;;;;;;;5.30;4.80;;;;;;;13.71;37.61;100182.38;5038555;28;20244;-67
2023/03/19 07:29:09;;;;;;;7.57;4.50;;;;;;;14.13;37.66;100182.09;5056432;28;20672;-67
2023/03/19 07:31:36;;;;;;;4.80;4.37;;;;;;;14.67;36.63;100174.00;5070299;28;20203;-67
2023/03/19 07:34:04;;;;;;;5.03;4.70;;;;;;;15.34;34.59;100175.38;5062574;28;20192;-69
2023/03/19 07:36:31;;;;;;;5.20;4.80;;;;;;;15.88;33.66;100181.16;5057743;28;20250;-69
2023/03/19 07:38:58;;;;;;;5.20;4.80;;;;;;;16.43;32.63;100173.44;5060728;28;20280;-69
2023/03/19 07:41:25;;;;;;;6.00;5.40;;;;;;;17.00;32.24;100178.56;5060307;28;20689;-70
2023/03/19 07:43:51;;;;;;;24.87;6.63;;;;;;;17.31;31.89;100168.53;5072036;28;20235;-69
2023/03/19 07:46:18;;;;;;;6.20;5.20;;;;;;;18.01;31.83;100161.72;5071697;28;20195;-70
2023/03/19 07:48:45;;;;;;;5.90;5.40;;;;;;;18.49;30.16;100173.22;5071955;28;20189;-70
2023/03/19 07:51:13;;;;;;;5.57;5.17;;;;;;;18.05;29.66;100165.59;5054588;28;20677;-74
2023/03/19 07:53:40;;;;;;;5.63;5.13;;;;;;;17.56;31.23;100163.13;5052152;28;20196;-68
2023/03/19 07:56:07;;;;;;;12.93;7.87;;;;;;;17.86;38.44;100156.75;5051673;28;20742;-69
2023/03/19 07:58:34;;;;;;;6.67;6.13;;;;;;;18.16;40.82;100156.72;5047247;28;20669;-71
2023/03/19 08:01:01;;;;;;;5.83;5.43;;;;;;;18.14;31.68;100167.75;5050609;28;20220;-70
2023/03/19 08:03:28;;;;;;;5.33;4.93;;;;;;;18.13;33.28;100166.06;5065955;28;20189;-70
2023/03/19 08:05:55;;;;;;;5.27;4.87;;;;;;;17.86;37.13;100155.91;5067090;28;20549;-70
2023/03/19 08:08:23;;;;;;;7.43;4.30;;;;;;;17.91;31.50;100169.50;5061838;28;20201;-69
2023/03/19 08:10:49;;;;;;;4.60;4.30;;;;;;;18.01;36.21;100159.03;5050650;28;20277;-69
2023/03/19 08:13:16;;;;;;;4.30;4.00;;;;;;;18.31;32.20;100162.53;5054153;28;20200;-71
2023/03/19 08:15:43;;;;;;;3.73;3.43;;;;;;;17.86;30.01;100155.91;5051350;28;20741;-70
2023/03/19 08:18:10;;;;;;;3.97;3.73;;;;;;;18.11;33.89;100148.53;5068043;28;20199;-70
2023/03/19 08:20:37;;;;;;;4.03;3.73;;;;;;;18.60;33.55;100142.84;5063067;28;20221;-71
2023/03/19 08:23:04;;;;;;;4.47;4.17;;;;;;;18.90;29.73;100154.34;5048091;28;20192;-69
2023/03/19 08:25:32;;;;;;;12.67;4.77;;;;;;;19.22;32.08;100144.84;5051602;28;20213;-71
2023/03/19 08:27:59;;;;;;;6.33;4.70;;;;;;;19.69;31.34;100146.44;5051263;28;20667;-71
2023/03/19 08:30:26;;;;;;;10.93;8.23;;;;;;;19.80;28.32;100146.41;5051079;28;20206;-70
2023/03/19 08:32:52;;;;;;;13.83;5.80;;;;;;;19.72;28.02;100143.25;5053033;28;20326;-74
2023/03/19 08:35:19;;;;;;;4.97;4.57;;;;;;;19.26;28.42;100138.78;5069312;28;20260;-68
2023/03/19 08:37:46;;;;;;;4.17;3.87;;;;;;;19.13;28.77;100132.78;5060929;28;20578;-69
2023/03/19 08:40:13;;;;;;;7.87;4.83;;;;;;;19.52;30.65;100132.06;5052782;28;20231;-71
2023/03/19 08:42:41;;;;;;;5.40;4.90;;;;;;;19.86;30.00;100131.94;5051128;28;20245;-70
2023/03/19 08:45:10;;;;;;;4.97;4.57;;;;;;;20.14;28.89;100131.97;5051235;28;20265;-69
2023/03/19 08:47:37;;;;;;;4.33;3.80;;;;;;;20.07;26.46;100125.06;5053238;28;20192;-68
2023/03/19 08:50:04;;;;;;;4.13;3.60;;;;;;;20.33;27.52;100121.78;5052773;28;20615;-73
2023/03/19 08:52:32;;;;;;;5.43;4.83;;;;;;;20.16;26.12;100126.34;5050646;28;20208;-70
2023/03/19 08:54:58;;;;;;;4.43;4.13;;;;;;;19.72;25.94;100127.06;5054013;28;20265;-71
2023/03/19 08:57:25;;;;;;;5.77;5.37;;;;;;;19.26;26.26;100121.81;5054486;28;20199;-71
2023/03/19 08:59:54;;;;;;;5.83;5.23;;;;;;;19.52;27.17;100126.69;5055420;28;20231;-70
2023/03/19 09:02:20;;;;;;;3.67;3.47;;;;;;;19.84;26.13;100125.16;5044141;28;20216;-71
2023/03/19 09:04:47;;;;;;;3.63;3.43;;;;;;;19.78;24.84;100120.72;5053801;28;20184;-71
2023/03/19 09:07:14;;;;;;;3.50;3.30;;;;;;;19.61;25.72;100119.84;5053613;28;20196;-69
2023/03/19 09:09:42;;;;;;;3.63;3.10;;;;;;;19.80;25.15;100115.91;5050718;28;20189;-70
2023/03/19 09:12:11;;;;;;;8.23;3.60;;;;;;;20.10;26.90;100108.44;5053902;28;20262;-70
2023/03/19 09:14:39;;;;;;;3.40;3.17;;;;;;;20.40;25.60;100114.34;5054360;28;20197;-69
2023/03/19 09:17:08;;;;;;;3.40;3.20;;;;;;;20.21;25.63;100107.53;5054024;28;20202;-68
2023/03/19 09:19:35;;;;;;;9.77;3.10;;;;;;;20.39;25.02;100102.72;5054281;28;20219;-69
2023/03/19 09:22:03;;;;;;;4.77;2.90;;;;;;;20.57;26.04;100098.97;5051728;28;20212;-70
2023/03/19 09:24:31;;;;;;;4.80;3.20;;;;;;;20.85;24.81;100101.56;5053908;28;20574;-69
2023/03/19 09:26:58;;;;;;;3.37;3.10;;;;;;;20.87;24.76;100087.81;5054034;28;20599;-71
2023/03/19 09:29:25;;;;;;;4.47;3.43;;;;;;;20.64;24.67;100086.13;5054547;28;20196;-71
2023/03/19 09:31:51;;;;;;;3.90;3.40;;;;;;;20.30;25.29;100087.22;5053876;28;20251;-68
2023/03/19 09:34:20;;;;;;;3.83;3.53;;;;;;;20.17;25.60;100082.09;5050314;28;20188;-71
2023/03/19 09:36:46;;;;;;;3.00;2.90;;;;;;;20.35;25.13;100073.78;5056192;28;20196;-71
2023/03/19 09:39:13;;;;;;;3.10;2.80;;;;;;;20.41;25.37;100078.19;5054519;28;20196;-69
2023/03/19 09:41:52;;;;;;;2.53;2.43;;;;;;;20.54;25.68;100083.25;5054276;28;20228;-71
2023/03/19 09:44:26;;;;;;;8.87;3.73;;;;;;;20.85;25.14;100077.28;5054011;28;20192;-70
2023/03/19 09:46:57;;;;;;;3.10;2.90;;;;;;;20.79;25.07;100064.78;5052347;28;20184;-71
2023/03/19 09:49:28;;;;;;;3.57;3.10;;;;;;;20.95;24.77;100055.81;5053904;28;20193;-69
2023/03/19 09:51:58;;;;;;;3.13;2.87;;;;;;;20.70;24.71;100050.03;5050784;28;20196;-71
2023/03/19 09:54:32;;;;;;;2.70;2.60;;;;;;;20.47;25.79;100044.84;5053245;28;20624;-71
2023/03/19 09:56:59;;;;;;;17.40;3.50;;;;;;;20.42;26.48;100052.88;5057898;28;20184;-69
2023/03/19 09:59:28;;;;;;;6.97;2.57;;;;;;;20.46;26.15;100033.22;5058215;28;20234;-70
2023/03/19 10:02:06;;;;;;;2.90;2.70;;;;;;;20.66;26.10;100043.50;5059068;28;20254;-69
2023/03/19 10:04:42;;;;;;;31.20;4.07;;;;;;;20.61;26.56;100035.31;5053821;28;20250;-70
2023/03/19 10:07:25;;;;;;;3.40;2.37;;;;;;;20.52;26.54;100034.13;5036909;28;20193;-70
2023/03/19 10:10:04;;;;;;;3.60;2.40;;;;;;;20.71;26.43;100027.38;5034274;28;20181;-71
2023/03/19 10:12:45;;;;;;;2.77;2.43;;;;;;;20.24;26.81;100028.81;5034026;28;20190;-71
2023/03/19 10:15:19;;;;;;;2.30;2.20;;;;;;;19.99;27.12;100021.09;5034118;28;20734;-71
2023/03/19 10:17:54;;;;;;;2.80;2.60;;;;;;;19.99;27.26;100013.00;5038541;28;20227;-71
2023/03/19 10:20:30;;;;;;;1.60;1.50;;;;;;;19.75;28.79;100019.59;5053734;28;20192;-71
2023/03/19 10:23:04;;;;;;;2.27;2.13;;;;;;;19.51;28.83;100001.88;5053403;28;20242;-70
2023/03/19 10:25:33;;;;;;;1.90;1.80;;;;;;;19.23;29.87;99999.19;5053823;28;20269;-71
2023/03/19 10:28:05;;;;;;;5.43;2.37;;;;;;;19.48;29.53;99996.97;5053046;28;20283;-70
2023/03/19 10:30:34;;;;;;;2.63;2.23;;;;;;;19.89;29.03;99974.28;5053148;28;20203;-69
2023/03/19 10:33:11;;;;;;;2.83;2.63;;;;;;;20.04;28.30;99971.78;5052997;28;20204;-69
2023/03/19 10:35:44;;;;;;;3.73;2.70;;;;;;;20.17;27.95;99979.59;5053563;28;20192;-70
2023/03/19 10:38:20;;;;;;;3.70;2.43;;;;;;;20.10;27.65;99962.78;5053949;28;20185;-69
2023/03/19 10:41:01;;;;;;;3.17;2.97;;;;;;;20.16;27.62;99961.78;5043415;28;20273;-70
2023/03/19 10:43:33;;;;;;;2.80;2.60;;;;;;;20.38;27.98;99957.28;5033449;28;20186;-70
2023/03/19 10:46:00;;;;;;;5.27;2.43;;;;;;;20.54;28.10;99953.69;5033263;28;20267;-70
2023/03/19 10:48:28;;;;;;;3.10;2.57;;;;;;;20.57;27.81;99942.41;5037567;28;20199;-70
2023/03/19 10:50:59;;;;;;;2.33;2.23;;;;;;;20.54;27.99;99932.09;5053069;28;20604;-70
2023/03/19 10:53:33;;;;;;;7.23;2.43;;;;;;;20.55;28.19;99933.75;5053199;28;20634;-71
2023/03/19 10:56:04;;;;;;;2.30;2.20;;;;;;;20.56;28.56;99935.38;5053181;28;20216;-71
2023/03/19 10:58:33;;;;;;;2.50;2.40;;;;;;;20.76;28.16;99919.44;5049507;28;20193;-70
2023/03/19 11:01:05;;;;;;;5.80;3.20;;;;;;;20.89;27.78;99939.84;5033091;28;20689;-70
2023/03/19 11:03:34;;;;;;;5.13;2.80;;;;;;;21.00;27.15;99926.25;5033305;28;20193;-70
2023/03/19 11:06:17;;;;;;;4.27;3.37;;;;;;;21.06;26.91;99919.03;5033301;28;20578;-70
2023/03/19 11:08:52;;;;;;;3.13;2.83;;;;;;;21.13;26.81;99922.31;5051822;28;20192;-71
2023/03/19 11:11:27;;;;;;;5.30;2.80;;;;;;;21.19;26.91;99915.91;5051702;28;20272;-70
2023/03/19 11:13:54;;;;;;;2.73;2.53;;;;;;;21.23;26.72;99909.72;5052866;28;20649;-70
2023/03/19 11:16:21;;;;;;;2.87;2.70;;;;;;;20.97;27.08;99902.44;5053320;28;20201;-70
2023/03/19 11:18:49;;;;;;;2.83;2.63;;;;;;;20.67;27.56;99895.81;5032812;28;20244;-71
2023/03/19 11:21:27;;;;;;;3.03;2.83;;;;;;;20.40;27.73;99898.44;5032669;28;20315;-70
2023/03/19 11:24:01;;;;;;;2.87;2.67;;;;;;;20.50;27.83;99890.50;5032866;28;20181;-70
2023/03/19 11:26:28;;;;;;;5.00;2.77;;;;;;;20.58;27.69;99891.94;5032550;28;20193;-71
2023/03/19 11:29:01;;;;;;;3.00;2.80;;;;;;;20.65;28.02;99890.69;5037727;28;20204;-71